New Cuyama, CA (93254)

4:19 PM PDT on June 22, 2017 (GMT -0700)
West Taft | | Change Station
Active Advisory: Heat Advisory

Elev 1175 ft 35.14 °N, 119.48 °W | Updated 33 seconds ago

Clear
Clear
106.5 °F
Feels Like 105 °F
N
4.3
Wind Variable Wind from North
Gusts 5.0 mph

Today
High -- | Low -- °F
--% Chance of Precip.
Yesterday
High -- | Low -- °F
Precip. -- in
Pressure 29.78 in
Visibility 10.0 miles
Clouds Clear
Heat Index 105 °F
Dew Point 54 °F
Humidity 18%
Rainfall 0.00 in
Snow Depth Not available.
5:45 AM 8:16 PM
Waning Crescent, 2% visible
METAR KIZA 222315Z AUTO 26012KT 10SM CLR 31/15 A2978 RMK AO2
Pressure 29.78 in
Visibility 10.0 miles
Clouds Clear
Heat Index 105 °F
Dew Point 54 °F
Humidity 18%
Rainfall 0.00 in
Snow Depth Not available.
5:45 AM 8:16 PM
Waning Crescent, 2% visible
METAR KIZA 222315Z AUTO 26012KT 10SM CLR 31/15 A2978 RMK AO2

Get Your Daily Forecast Email!

Thanks for signing up!

Be on the lookout for a verification email in your inbox.

You'll start receiving severe weather alerts in your inbox..

×

10-Day Weather Forecast

Almanac

Astronomy

Jun. 22, 2017 Rise Set
Actual Time
Civil Twilight
Nautical Twilight
Astronomical Twilight
Moon
Length of Visible Light
Length of Day
Tomorrow will be .
, % of the Moon is Illuminated

Today's Extremes

State Highs State Lows

Community

WunderPhotos

Category 6

Welcome to Category 6. This is the collective home for Weather Underground's featured writeups by Dr. Jeff Masters (right), Bob Henson (left), Chris Burt, and other regular contributors.

Nearby

Air Quality

  Air Quality AQ Index Pollutant
Not available.

Snow Depth

Station Depth Elevation

Earthquake Activity

City Distance Mag. Time & Date
Minimum magnitude displayed is 2.5.

Coastal Water Temperatures

Place Temperature

Stations

Nearby Weather Stations

Station Location Temp. Windchill Dew Point Humidity Wind Precip. Elev Updated Type
                   

Watches & Warnings

Heat Advisory
Issued: 10:24 AM PDT Jun. 22, 2017 – National Weather Service

... Heat advisory remains in effect until 9 PM PDT Sunday...

* temperatures... 100-105 degrees. Across the elevated foothills
and mountains, night-time temperatures in the 70s will be
likely.

* Impacts... the very high temperatures could create a dangerous
situation in which heat related illnesses are possible.
Temperatures inside vehicles, even if the windows are
partially open, can quickly rise to life-threatening levels.
The extended heat wave will also bring elevated fire danger
through the weekend.

Precautionary/preparedness actions...

Never, ever, leave people or pets in enclosed vehicles, even for
a short period of time.

Take extra precautions if you work or spend time outside. When
possible, reschedule strenuous activities to early morning or
evening. Know the signs and symptoms of heat exhaustion and heat
stroke. Wear light weight and loose fitting clothing when
possible and drink plenty of water.



Mw